Sluck, Belarus

7:43 AM MSK on December 19, 2014 (GMT +0300)
Minsk-2 | Change Station
CLOSE
Current Station
Airport
Location: Minsk In-Min,
Elevation: 669 ft
Nearby Weather Stations

Elev 669 ft 53.88 °N, 28.03 °E | Updated 13 minutes ago

Light Rain
Light Rain Mist
37 °F
Feels Like 31 °F
N
9
Wind Variable Wind from South
Gusts 16 mph

Today
High -- | Low -- °F
--% Chance of Precip.
Yesterday
High -- | Low -- °F
Precip. -- in
9:19 AM 4:53 PM
Waning Crescent, 10% visible
Pressure 29.56 in
Visibility 1.7 miles
Clouds Overcast 400 ft
Windchill 31 °F
Dew Point 37 °F
Humidity 100%
Rainfall 0.00 in
Snow Depth Not available.
UV 0 out of 12
Pollen Not available.
Air Quality Not available.
Flu Activity Not available.
METAR UMMS 190430Z 17004G07MPS 2800 -RA BR OVC004 03/03 Q1001 R13/610450 NOSIG RMK QBB120

More Conditions Fewer Conditions

Pressure 29.56 in
Visibility 1.7 miles
Clouds Overcast 400 ft
Windchill 31 °F
Dew Point 37 °F
Humidity 100%
Rainfall 0.00 in
Snow Depth Not available.
UV 0 out of 12
Pollen Not available.
Air Quality Not available.
Flu Activity Not available.
METAR UMMS 190430Z 17004G07MPS 2800 -RA BR OVC004 03/03 Q1001 R13/610450 NOSIG RMK QBB120

More Conditions Fewer Conditions

10-Day Weather Forecast

Almanac

Astronomy

Dec. 19, 2014 Rise Set
Actual Time
Civil Twilight
Nautical Twilight
Astronomical Twilight
Moon
Length of Visible Light
Length of Day
Tomorrow will be .
, % of the Moon is Illuminated

Today's Extremes

Country Highs Country Lows

Community

WunderPhotos

Upload Photos

1,778,960 photos uploaded!

WunderBlogs® & News

Nearby

Air Quality

  Air Quality AQ Index Pollutant
Not available.

Snow Depth

Station Depth Elevation

Earthquake Activity

City Distance Mag. Time & Date
Minimum magnitude displayed is 2.5.

Coastal Water Temperatures

Place Temperature

Nearby Weather Stations